Time;durP1;ratioP1;P1;durP2;ratioP2;P2;SDS_P1;SDS_P2;PMS_P1;PMS_P2;Temp;Humidity;BMP_temperature;BMP_pressure;BME280_temperature;BME280_humidity;BME280_pressure;Samples;Min_cycle;Max_cycle;Signal;HPM_P1;HPM_P2
2023/08/01 00:01:32;;;;;;;3.50;1.95;;;;;;;;;;4931299;28;99416;-74
2023/08/01 00:03:58;;;;;;;2.97;1.83;;;;;;;;;;4932152;28;99237;-75
2023/08/01 00:06:25;;;;;;;2.63;1.75;;;;;;;;;;4929740;28;99515;-75
2023/08/01 00:08:51;;;;;;;2.28;1.98;;;;;;;;;;4929940;28;98949;-73
2023/08/01 00:11:18;;;;;;;4.15;2.10;;;;;;;;;;4929069;28;98795;-74
2023/08/01 00:13:44;;;;;;;8.93;2.15;;;;;;;;;;4929859;28;100406;-74
2023/08/01 00:16:10;;;;;;;2.30;2.03;;;;;;;;;;4930225;28;99058;-74
2023/08/01 00:18:37;;;;;;;3.25;1.73;;;;;;;;;;4929690;28;99993;-75
2023/08/01 00:21:05;;;;;;;3.70;2.17;;;;;;;;;;4930910;28;99850;-74
2023/08/01 00:23:32;;;;;;;4.05;2.25;;;;;;;;;;4934075;28;99142;-74
2023/08/01 00:25:58;;;;;;;4.00;2.40;;;;;;;;;;4929167;28;99219;-74
2023/08/01 00:28:26;;;;;;;7.13;2.30;;;;;;;;;;4928722;28;99280;-75
2023/08/01 00:31:06;;;;;;;4.60;2.47;;;;;;;;;;4928237;28;99742;-74
2023/08/01 00:33:32;;;;;;;3.30;2.08;;;;;;;;;;4929788;28;100127;-74
2023/08/01 00:35:59;;;;;;;4.47;2.05;;;;;;;;;;4928205;28;101052;-74
2023/08/01 00:38:26;;;;;;;5.75;2.50;;;;;;;;;;4928882;28;99028;-74
2023/08/01 00:40:52;;;;;;;5.00;2.28;;;;;;;;;;4928414;28;99360;-74
2023/08/01 00:43:19;;;;;;;5.05;2.58;;;;;;;;;;4929181;28;100083;-74
2023/08/01 00:45:46;;;;;;;5.55;2.70;;;;;;;;;;4932925;28;98703;-74
2023/08/01 00:48:12;;;;;;;8.93;3.00;;;;;;;;;;4927923;28;102773;-74
2023/08/01 00:50:39;;;;;;;8.88;2.70;;;;;;;;;;4941901;28;98743;-74
2023/08/01 00:53:06;;;;;;;5.35;2.95;;;;;;;;;;4947846;28;101031;-74
2023/08/01 00:55:32;;;;;;;9.75;2.45;;;;;;;;;;4948536;28;99957;-75
2023/08/01 00:57:59;;;;;;;3.88;2.53;;;;;;;;;;4947729;28;99126;-75
2023/08/01 01:00:26;;;;;;;4.15;2.65;;;;;;;;;;4940055;28;99472;-75
2023/08/01 01:02:52;;;;;;;5.88;2.45;;;;;;;;;;4928364;28;101577;-75
2023/08/01 01:05:20;;;;;;;3.70;2.38;;;;;;;;;;4927416;28;100740;-76
2023/08/01 01:07:47;;;;;;;4.88;2.40;;;;;;;;;;4932083;28;99212;-75
2023/08/01 01:10:13;;;;;;;6.90;2.63;;;;;;;;;;4929213;28;98928;-75
2023/08/01 01:12:40;;;;;;;10.52;2.88;;;;;;;;;;4927714;28;100347;-75
2023/08/01 01:15:06;;;;;;;7.60;2.50;;;;;;;;;;4939463;28;101466;-75
2023/08/01 01:17:33;;;;;;;7.93;2.83;;;;;;;;;;4934511;28;99195;-75
2023/08/01 01:19:59;;;;;;;15.77;3.47;;;;;;;;;;4908330;28;99433;-75
2023/08/01 01:22:26;;;;;;;9.20;3.83;;;;;;;;;;4908828;28;99008;-75
2023/08/01 01:24:53;;;;;;;6.28;2.88;;;;;;;;;;4909845;28;99073;-74
2023/08/01 01:27:20;;;;;;;7.22;2.60;;;;;;;;;;4909137;28;99110;-73
2023/08/01 01:29:48;;;;;;;3.90;2.92;;;;;;;;;;4911497;28;101149;-75
2023/08/01 01:32:15;;;;;;;10.82;3.28;;;;;;;;;;4908489;28;99212;-74
2023/08/01 01:34:41;;;;;;;8.63;3.15;;;;;;;;;;4914643;28;100430;-75
2023/08/01 01:37:08;;;;;;;3.78;2.70;;;;;;;;;;4917201;28;98668;-75
2023/08/01 01:39:34;;;;;;;7.93;2.88;;;;;;;;;;4927496;28;101766;-74
2023/08/01 01:42:01;;;;;;;5.43;3.03;;;;;;;;;;4927958;28;99293;-74
2023/08/01 01:44:27;;;;;;;5.00;2.65;;;;;;;;;;4927481;28;102452;-74
2023/08/01 01:46:54;;;;;;;11.27;3.35;;;;;;;;;;4929046;28;99083;-75
2023/08/01 01:49:21;;;;;;;5.78;3.38;;;;;;;;;;4926223;28;101915;-74
2023/08/01 01:51:47;;;;;;;9.52;3.33;;;;;;;;;;4931905;28;98801;-74
2023/08/01 01:54:14;;;;;;;10.20;3.28;;;;;;;;;;4928956;28;98822;-74
2023/08/01 01:56:40;;;;;;;7.15;3.50;;;;;;;;;;4928268;28;99208;-74
2023/08/01 01:59:07;;;;;;;8.60;3.00;;;;;;;;;;4928620;28;101077;-75
2023/08/01 02:01:33;;;;;;;5.53;3.05;;;;;;;;;;4926090;28;100999;-75
2023/08/01 02:04:00;;;;;;;6.00;3.33;;;;;;;;;;4928034;28;98770;-76
2023/08/01 02:06:26;;;;;;;13.38;3.60;;;;;;;;;;4926385;28;101089;-74
2023/08/01 02:08:53;;;;;;;12.30;3.22;;;;;;;;;;4926992;28;101375;-75
2023/08/01 02:11:20;;;;;;;7.32;3.10;;;;;;;;;;4926416;28;99085;-74
2023/08/01 02:13:46;;;;;;;10.88;3.60;;;;;;;;;;4930428;28;101806;-74
2023/08/01 02:16:13;;;;;;;6.97;3.42;;;;;;;;;;4926970;28;101482;-75
2023/08/01 02:18:39;;;;;;;5.85;3.30;;;;;;;;;;4926434;28;99742;-75
2023/08/01 02:21:06;;;;;;;9.23;3.35;;;;;;;;;;4928731;28;98787;-75
2023/08/01 02:23:36;;;;;;;9.95;3.90;;;;;;;;;;4925561;28;100192;-75
2023/08/01 02:26:02;;;;;;;6.78;2.97;;;;;;;;;;4919333;28;101752;-74
2023/08/01 02:28:29;;;;;;;7.00;2.90;;;;;;;;;;4926910;28;100009;-74
2023/08/01 02:30:55;;;;;;;10.93;3.33;;;;;;;;;;4927165;28;99785;-74
2023/08/01 02:33:22;;;;;;;15.85;4.30;;;;;;;;;;4931169;28;99267;-74
2023/08/01 02:35:48;;;;;;;11.95;4.40;;;;;;;;;;4928551;28;99061;-74
2023/08/01 02:38:15;;;;;;;11.07;3.78;;;;;;;;;;4927215;28;100407;-74
2023/08/01 02:40:41;;;;;;;9.35;3.40;;;;;;;;;;4927022;28;100115;-75
2023/08/01 02:43:08;;;;;;;13.45;3.55;;;;;;;;;;4928285;28;98931;-75
2023/08/01 02:45:34;;;;;;;10.75;4.43;;;;;;;;;;4925748;28;101940;-75
2023/08/01 02:48:00;;;;;;;6.13;3.35;;;;;;;;;;4928038;28;98645;-76
2023/08/01 02:50:27;;;;;;;6.85;3.15;;;;;;;;;;4926200;28;98886;-75
2023/08/01 02:52:53;;;;;;;6.05;3.03;;;;;;;;;;4925920;28;101457;-75
2023/08/01 02:55:20;;;;;;;6.28;3.35;;;;;;;;;;4930574;28;99235;-74
2023/08/01 02:57:46;;;;;;;6.30;3.63;;;;;;;;;;4926897;28;100914;-74
2023/08/01 03:00:13;;;;;;;4.57;2.92;;;;;;;;;;4925470;28;101663;-74
2023/08/01 03:02:40;;;;;;;8.48;3.08;;;;;;;;;;4928076;28;98820;-73
2023/08/01 03:05:07;;;;;;;7.07;3.13;;;;;;;;;;4928134;28;98974;-74
2023/08/01 03:07:34;;;;;;;9.48;2.70;;;;;;;;;;4927225;28;99349;-74
2023/08/01 03:10:00;;;;;;;8.10;2.67;;;;;;;;;;4927752;28;99976;-76
2023/08/01 03:12:27;;;;;;;4.20;2.35;;;;;;;;;;4922232;28;98369;-75
2023/08/01 03:14:54;;;;;;;9.27;2.97;;;;;;;;;;4909415;28;100059;-75
2023/08/01 03:17:20;;;;;;;7.32;2.88;;;;;;;;;;4930117;28;98774;-73
2023/08/01 03:19:48;;;;;;;8.10;2.80;;;;;;;;;;4925126;28;99268;-73
2023/08/01 03:22:15;;;;;;;8.50;3.33;;;;;;;;;;4927728;28;99640;-73
2023/08/01 03:24:43;;;;;;;5.05;2.65;;;;;;;;;;4925986;28;100996;-73
2023/08/01 03:27:09;;;;;;;6.28;2.90;;;;;;;;;;4926767;28;99965;-73
2023/08/01 03:29:36;;;;;;;4.85;2.80;;;;;;;;;;4927756;28;100491;-74
2023/08/01 03:32:02;;;;;;;6.57;3.20;;;;;;;;;;4926305;28;102188;-74
2023/08/01 03:34:29;;;;;;;4.63;2.60;;;;;;;;;;4927458;28;100106;-74
2023/08/01 03:36:56;;;;;;;7.72;2.90;;;;;;;;;;4931497;28;99960;-74
2023/08/01 03:39:23;;;;;;;7.63;3.00;;;;;;;;;;4934104;28;99022;-74
2023/08/01 03:41:49;;;;;;;4.10;2.88;;;;;;;;;;4929980;28;99989;-73
2023/08/01 03:44:17;;;;;;;8.88;3.00;;;;;;;;;;4930717;28;100074;-74
2023/08/01 03:46:43;;;;;;;5.97;3.50;;;;;;;;;;4950358;28;98861;-73
2023/08/01 03:49:10;;;;;;;9.20;3.72;;;;;;;;;;4947807;28;98885;-73
2023/08/01 03:51:36;;;;;;;7.53;3.85;;;;;;;;;;4928022;28;102001;-74
2023/08/01 03:54:03;;;;;;;7.80;3.58;;;;;;;;;;4911222;28;98975;-74
2023/08/01 03:56:42;;;;;;;6.32;3.97;;;;;;;;;;4910348;28;98944;-73
2023/08/01 03:59:13;;;;;;;4.50;3.60;;;;;;;;;;4911027;28;100270;-73
2023/08/01 04:01:39;;;;;;;7.07;4.10;;;;;;;;;;4932237;28;101513;-73
2023/08/01 04:04:06;;;;;;;11.15;4.35;;;;;;;;;;4929949;28;99915;-75
2023/08/01 04:06:33;;;;;;;4.10;3.15;;;;;;;;;;4930041;28;99218;-75
2023/08/01 04:09:02;;;;;;;12.90;3.80;;;;;;;;;;4909739;28;100178;-76
2023/08/01 04:11:29;;;;;;;9.93;3.63;;;;;;;;;;4922862;28;100419;-74
2023/08/01 04:13:56;;;;;;;19.38;4.40;;;;;;;;;;4930344;28;99884;-75
2023/08/01 04:16:22;;;;;;;9.02;3.83;;;;;;;;;;4931885;28;99662;-75
2023/08/01 04:18:49;;;;;;;10.45;4.57;;;;;;;;;;4931277;28;99647;-73
2023/08/01 04:21:15;;;;;;;7.53;4.10;;;;;;;;;;4931048;28;99131;-73
2023/08/01 04:23:42;;;;;;;12.13;4.25;;;;;;;;;;4932431;28;100036;-75
2023/08/01 04:26:08;;;;;;;8.25;4.93;;;;;;;;;;4930437;28;98097;-74
2023/08/01 04:28:35;;;;;;;10.45;3.47;;;;;;;;;;4929642;28;98725;-74
2023/08/01 04:31:02;;;;;;;8.63;4.05;;;;;;;;;;4929107;28;100185;-76
2023/08/01 04:33:28;;;;;;;9.73;4.10;;;;;;;;;;4928149;28;100377;-75
2023/08/01 04:35:55;;;;;;;7.43;3.97;;;;;;;;;;4930000;28;100636;-75
2023/08/01 04:38:21;;;;;;;21.20;5.03;;;;;;;;;;4928624;28;100194;-75
2023/08/01 04:40:48;;;;;;;10.27;4.35;;;;;;;;;;4929619;28;100494;-74
2023/08/01 04:43:14;;;;;;;12.30;4.03;;;;;;;;;;4932394;28;99380;-75
2023/08/01 04:45:41;;;;;;;10.98;4.00;;;;;;;;;;4928084;28;99118;-75
2023/08/01 04:48:07;;;;;;;13.65;4.75;;;;;;;;;;4929687;28;98967;-75
2023/08/01 04:50:34;;;;;;;8.75;4.00;;;;;;;;;;4929681;28;98599;-75
2023/08/01 04:53:00;;;;;;;11.75;5.25;;;;;;;;;;4928618;28;99971;-75
2023/08/01 04:55:26;;;;;;;9.73;4.18;;;;;;;;;;4929023;28;99040;-75
2023/08/01 04:57:53;;;;;;;15.48;3.95;;;;;;;;;;4929096;28;99945;-75
2023/08/01 05:00:19;;;;;;;8.93;3.55;;;;;;;;;;4928558;28;99997;-74
2023/08/01 05:02:46;;;;;;;18.77;4.05;;;;;;;;;;4929680;28;99984;-75
2023/08/01 05:05:12;;;;;;;7.53;4.32;;;;;;;;;;4932216;28;100155;-75
2023/08/01 05:07:39;;;;;;;14.90;4.47;;;;;;;;;;4929248;28;100078;-75
2023/08/01 05:10:05;;;;;;;10.27;5.45;;;;;;;;;;4934417;28;100283;-74
2023/08/01 05:12:32;;;;;;;12.05;4.50;;;;;;;;;;4937334;28;100270;-74
2023/08/01 05:14:58;;;;;;;11.73;4.45;;;;;;;;;;4929480;28;99948;-74
2023/08/01 05:17:25;;;;;;;13.52;4.93;;;;;;;;;;4928760;28;99746;-74
2023/08/01 05:19:51;;;;;;;9.13;3.88;;;;;;;;;;4927911;28;98971;-75
2023/08/01 05:22:18;;;;;;;15.68;4.35;;;;;;;;;;4928335;28;99095;-74
2023/08/01 05:24:45;;;;;;;11.43;3.80;;;;;;;;;;4928986;28;100247;-74
2023/08/01 05:27:11;;;;;;;16.95;3.80;;;;;;;;;;4931559;28;99316;-73
2023/08/01 05:29:37;;;;;;;18.67;4.43;;;;;;;;;;4928867;28;99589;-74
2023/08/01 05:32:04;;;;;;;12.75;3.72;;;;;;;;;;4928939;28;99145;-74
2023/08/01 05:34:30;;;;;;;15.50;5.03;;;;;;;;;;4927723;28;100487;-73
2023/08/01 05:36:57;;;;;;;9.88;4.20;;;;;;;;;;4929005;28;100270;-74
2023/08/01 05:39:23;;;;;;;12.82;4.18;;;;;;;;;;4929307;28;99981;-74
2023/08/01 05:41:50;;;;;;;11.25;4.15;;;;;;;;;;4928157;28;99223;-73
2023/08/01 05:44:17;;;;;;;14.43;3.83;;;;;;;;;;4928812;28;100150;-74
2023/08/01 05:46:43;;;;;;;10.30;3.58;;;;;;;;;;4928298;28;100110;-73
2023/08/01 05:49:10;;;;;;;7.18;4.20;;;;;;;;;;4930119;28;100742;-73
2023/08/01 05:51:36;;;;;;;10.68;3.90;;;;;;;;;;4929065;28;99997;-73
2023/08/01 05:54:03;;;;;;;12.82;3.78;;;;;;;;;;4928749;28;100217;-73
2023/08/01 05:56:29;;;;;;;18.10;4.03;;;;;;;;;;4927382;28;99917;-73
2023/08/01 05:58:56;;;;;;;8.25;3.97;;;;;;;;;;4928676;28;100065;-73
2023/08/01 06:01:22;;;;;;;15.15;3.92;;;;;;;;;;4927139;28;99870;-73
2023/08/01 06:03:49;;;;;;;10.02;3.72;;;;;;;;;;4920179;28;99204;-73
2023/08/01 06:06:16;;;;;;;5.57;2.95;;;;;;;;;;4918427;28;100370;-72
2023/08/01 06:08:42;;;;;;;4.93;2.97;;;;;;;;;;4927570;28;99912;-75
2023/08/01 06:11:08;;;;;;;14.38;2.97;;;;;;;;;;4946951;28;101706;-74
2023/08/01 06:13:35;;;;;;;13.52;3.75;;;;;;;;;;4928678;28;100983;-74
2023/08/01 06:16:01;;;;;;;9.38;3.25;;;;;;;;;;4924704;28;100165;-74
2023/08/01 06:18:28;;;;;;;10.35;3.47;;;;;;;;;;4926140;28;99236;-74
2023/08/01 06:20:54;;;;;;;6.53;2.80;;;;;;;;;;4928344;28;100005;-74
2023/08/01 06:23:21;;;;;;;8.23;3.08;;;;;;;;;;4925985;28;100152;-74
2023/08/01 06:25:47;;;;;;;9.18;3.20;;;;;;;;;;4928412;28;99187;-74
2023/08/01 06:28:14;;;;;;;5.82;2.78;;;;;;;;;;4917983;28;99908;-74
2023/08/01 06:30:40;;;;;;;9.70;2.90;;;;;;;;;;4927268;28;100283;-74
2023/08/01 06:33:07;;;;;;;9.48;2.83;;;;;;;;;;4929484;28;98485;-74
2023/08/01 06:35:33;;;;;;;8.00;2.55;;;;;;;;;;4921756;28;100181;-73
2023/08/01 06:38:00;;;;;;;14.57;2.78;;;;;;;;;;4921074;28;99063;-74
2023/08/01 06:40:26;;;;;;;11.70;3.10;;;;;;;;;;4924164;28;100080;-74
2023/08/01 06:42:53;;;;;;;7.38;2.45;;;;;;;;;;4926065;28;100172;-73
2023/08/01 06:45:19;;;;;;;7.13;2.60;;;;;;;;;;4925737;28;99962;-74
2023/08/01 06:47:45;;;;;;;7.15;2.60;;;;;;;;;;4928544;28;98838;-74
2023/08/01 06:50:12;;;;;;;4.45;2.30;;;;;;;;;;4925085;28;100087;-74
2023/08/01 06:52:38;;;;;;;9.13;2.75;;;;;;;;;;4930803;28;99859;-74
2023/08/01 06:55:05;;;;;;;14.43;2.67;;;;;;;;;;4924855;28;99413;-73
2023/08/01 06:57:32;;;;;;;11.43;2.38;;;;;;;;;;4926025;28;100351;-74
2023/08/01 06:59:58;;;;;;;9.63;3.50;;;;;;;;;;4926673;28;99936;-75
2023/08/01 07:02:25;;;;;;;6.82;2.75;;;;;;;;;;4927705;28;100174;-75
2023/08/01 07:04:52;;;;;;;7.80;2.00;;;;;;;;;;4927258;28;99976;-75
2023/08/01 07:07:18;;;;;;;7.00;2.55;;;;;;;;;;4927378;28;100060;-77
2023/08/01 07:09:44;;;;;;;12.40;2.25;;;;;;;;;;4928835;28;99189;-74
2023/08/01 07:12:11;;;;;;;5.55;2.17;;;;;;;;;;4930453;28;99110;-76
2023/08/01 07:14:37;;;;;;;2.70;1.83;;;;;;;;;;4933815;28;99230;-76
2023/08/01 07:17:04;;;;;;;7.70;2.35;;;;;;;;;;4932224;28;99324;-75
2023/08/01 07:19:30;;;;;;;2.90;2.00;;;;;;;;;;4930113;28;98522;-75
2023/08/01 07:21:57;;;;;;;8.18;3.10;;;;;;;;;;4931095;28;100044;-74
2023/08/01 07:24:24;;;;;;;4.28;2.67;;;;;;;;;;4930216;28;99234;-74
2023/08/01 07:26:54;;;;;;;5.57;2.38;;;;;;;;;;4929978;28;99729;-76
2023/08/01 07:29:20;;;;;;;3.85;2.35;;;;;;;;;;4930686;28;99379;-76
2023/08/01 07:31:47;;;;;;;4.55;2.42;;;;;;;;;;4930599;28;98856;-76
2023/08/01 07:34:13;;;;;;;5.82;2.45;;;;;;;;;;4929537;28;98770;-76
2023/08/01 07:36:41;;;;;;;4.22;2.17;;;;;;;;;;4933922;28;99632;-76
2023/08/01 07:39:08;;;;;;;8.02;1.92;;;;;;;;;;4928908;28;99093;-75
2023/08/01 07:41:35;;;;;;;5.10;2.00;;;;;;;;;;4928499;28;99478;-76
2023/08/01 07:44:03;;;;;;;4.80;2.05;;;;;;;;;;4925375;28;100286;-76
2023/08/01 07:46:29;;;;;;;7.78;2.58;;;;;;;;;;4923940;28;99834;-75
2023/08/01 07:48:56;;;;;;;2.95;1.58;;;;;;;;;;4920549;28;101868;-76
2023/08/01 07:51:22;;;;;;;6.70;1.90;;;;;;;;;;4920653;28;100120;-77
2023/08/01 07:53:50;;;;;;;2.53;2.08;;;;;;;;;;4927583;28;99791;-78
2023/08/01 07:56:16;;;;;;;6.10;2.40;;;;;;;;;;4929417;28;99230;-75
2023/08/01 07:58:43;;;;;;;3.88;1.92;;;;;;;;;;4933535;28;99419;-75
2023/08/01 08:01:09;;;;;;;6.25;2.45;;;;;;;;;;4929747;28;99232;-75
2023/08/01 08:03:36;;;;;;;6.63;2.45;;;;;;;;;;4929818;28;98942;-75
2023/08/01 08:06:03;;;;;;;4.95;2.30;;;;;;;;;;4930903;28;98946;-74
2023/08/01 08:08:30;;;;;;;10.15;2.33;;;;;;;;;;4927128;28;99784;-75
2023/08/01 08:10:56;;;;;;;6.40;2.45;;;;;;;;;;4930040;28;100366;-75
2023/08/01 08:13:23;;;;;;;6.43;2.38;;;;;;;;;;4928793;28;99357;-75
2023/08/01 08:15:50;;;;;;;5.88;2.50;;;;;;;;;;4929468;28;100425;-76
2023/08/01 08:18:18;;;;;;;6.28;2.22;;;;;;;;;;4929945;28;99054;-76
2023/08/01 08:20:46;;;;;;;12.02;2.38;;;;;;;;;;4932626;28;98920;-75
2023/08/01 08:23:15;;;;;;;6.43;1.95;;;;;;;;;;4929199;28;100036;-75
2023/08/01 08:25:42;;;;;;;4.38;1.77;;;;;;;;;;4930007;28;100160;-75
2023/08/01 08:28:08;;;;;;;7.88;2.10;;;;;;;;;;4930310;28;100188;-75
2023/08/01 08:30:35;;;;;;;5.53;2.22;;;;;;;;;;4931028;28;99906;-75
2023/08/01 08:33:04;;;;;;;6.07;1.80;;;;;;;;;;4929584;28;98870;-74
2023/08/01 08:35:31;;;;;;;8.18;1.98;;;;;;;;;;4930158;28;100669;-77
2023/08/01 08:37:58;;;;;;;5.72;1.75;;;;;;;;;;4927175;28;100246;-76
2023/08/01 08:40:25;;;;;;;5.57;2.13;;;;;;;;;;4927415;28;99613;-77
2023/08/01 08:42:54;;;;;;;2.60;1.55;;;;;;;;;;4921255;28;99210;-74
2023/08/01 08:45:21;;;;;;;3.53;1.48;;;;;;;;;;4928744;28;99823;-76
2023/08/01 08:47:54;;;;;;;4.10;1.77;;;;;;;;;;4929244;28;100313;-77
2023/08/01 08:50:21;;;;;;;4.03;1.83;;;;;;;;;;4928418;28;100119;-76
2023/08/01 08:52:48;;;;;;;3.35;1.73;;;;;;;;;;4929669;28;99924;-75
2023/08/01 08:55:14;;;;;;;3.03;1.48;;;;;;;;;;4920460;28;99037;-76
2023/08/01 08:57:42;;;;;;;7.10;2.05;;;;;;;;;;4909836;28;99011;-75
2023/08/01 09:00:09;;;;;;;5.10;1.60;;;;;;;;;;4910245;28;99014;-76
2023/08/01 09:02:41;;;;;;;6.13;1.70;;;;;;;;;;4918801;28;101072;-76
2023/08/01 09:05:09;;;;;;;3.42;1.52;;;;;;;;;;4928718;28;100554;-76
2023/08/01 09:07:38;;;;;;;3.90;1.70;;;;;;;;;;4928148;28;100238;-76
2023/08/01 09:10:08;;;;;;;5.55;1.40;;;;;;;;;;4929852;28;99997;-75
2023/08/01 09:12:35;;;;;;;8.93;1.50;;;;;;;;;;4928419;28;99054;-75
2023/08/01 09:15:02;;;;;;;4.78;1.75;;;;;;;;;;4929519;28;100168;-75
2023/08/01 09:17:28;;;;;;;3.13;1.42;;;;;;;;;;4928656;28;99867;-75
2023/08/01 09:20:08;;;;;;;6.88;2.22;;;;;;;;;;4928690;28;98960;-75
2023/08/01 09:22:41;;;;;;;5.88;2.03;;;;;;;;;;4928092;28;99590;-75
2023/08/01 09:25:07;;;;;;;2.53;1.27;;;;;;;;;;4932684;28;100317;-76
2023/08/01 09:27:34;;;;;;;4.65;1.70;;;;;;;;;;4925811;28;100317;-76
2023/08/01 09:30:04;;;;;;;2.30;1.13;;;;;;;;;;4929279;28;99064;-75
2023/08/01 09:32:32;;;;;;;8.70;1.75;;;;;;;;;;4927931;28;99846;-76
2023/08/01 09:34:59;;;;;;;6.80;1.48;;;;;;;;;;4929335;28;99260;-76
2023/08/01 09:37:25;;;;;;;3.55;1.58;;;;;;;;;;4927234;28;99192;-75
2023/08/01 09:39:55;;;;;;;8.00;2.33;;;;;;;;;;4928173;28;98882;-77
2023/08/01 09:42:22;;;;;;;9.48;2.08;;;;;;;;;;4922135;28;99992;-74
2023/08/01 09:44:48;;;;;;;4.05;1.73;;;;;;;;;;4915355;28;99836;-75
2023/08/01 09:47:17;;;;;;;4.82;1.80;;;;;;;;;;4920245;28;99050;-74
2023/08/01 09:49:50;;;;;;;5.25;1.83;;;;;;;;;;4920231;28;99997;-75
2023/08/01 09:52:26;;;;;;;8.43;2.20;;;;;;;;;;4915790;28;101444;-74
2023/08/01 09:54:53;;;;;;;4.07;1.55;;;;;;;;;;4920980;28;100106;-75
2023/08/01 09:57:21;;;;;;;3.53;1.50;;;;;;;;;;4920916;28;100346;-74
2023/08/01 09:59:47;;;;;;;4.40;1.40;;;;;;;;;;4921449;28;100202;-74
2023/08/01 10:02:15;;;;;;;3.72;1.60;;;;;;;;;;4922204;28;99682;-74
2023/08/01 10:04:42;;;;;;;5.82;1.80;;;;;;;;;;4920416;28;99989;-74
2023/08/01 10:07:11;;;;;;;4.55;1.60;;;;;;;;;;4914828;28;99921;-75
2023/08/01 10:09:40;;;;;;;5.75;2.15;;;;;;;;;;4923308;28;100120;-74
2023/08/01 10:12:09;;;;;;;5.22;1.77;;;;;;;;;;4918425;28;100086;-74
2023/08/01 10:14:36;;;;;;;3.03;1.60;;;;;;;;;;4920949;28;99203;-74
2023/08/01 10:17:02;;;;;;;4.18;2.20;;;;;;;;;;4919347;28;101594;-74
2023/08/01 10:19:31;;;;;;;5.00;1.60;;;;;;;;;;4915238;28;100721;-74
2023/08/01 10:21:57;;;;;;;5.32;1.80;;;;;;;;;;4915209;28;101118;-74
2023/08/01 10:24:25;;;;;;;10.77;1.50;;;;;;;;;;4917624;28;100189;-74
2023/08/01 10:26:52;;;;;;;8.00;1.75;;;;;;;;;;4923325;28;99151;-74
2023/08/01 10:29:20;;;;;;;8.10;3.92;;;;;;;;;;4916535;28;101137;-74
2023/08/01 10:31:53;;;;;;;63.97;26.33;;;;;;;;;;4924046;28;100272;-75
2023/08/01 10:34:21;;;;;;;3.22;1.20;;;;;;;;;;4917781;28;99538;-75
2023/08/01 10:36:57;;;;;;;5.65;2.10;;;;;;;;;;4920184;28;99939;-75
2023/08/01 10:39:24;;;;;;;10.75;3.95;;;;;;;;;;4921599;28;100250;-75
2023/08/01 10:42:00;;;;;;;6.55;1.95;;;;;;;;;;4918056;28;100868;-76
2023/08/01 10:44:27;;;;;;;12.80;4.47;;;;;;;;;;4915803;28;100116;-75
2023/08/01 10:46:59;;;;;;;2.58;2.03;;;;;;;;;;4921948;28;100322;-76
2023/08/01 10:49:45;;;;;;;4.65;1.77;;;;;;;;;;4917318;28;100151;-75
2023/08/01 10:52:18;;;;;;;3.47;1.40;;;;;;;;;;4924278;28;99842;-76
2023/08/01 10:54:45;;;;;;;5.65;1.48;;;;;;;;;;4920655;28;99504;-74
2023/08/01 10:57:16;;;;;;;1.52;1.13;;;;;;;;;;4918422;28;100198;-74
2023/08/01 10:59:43;;;;;;;3.83;1.10;;;;;;;;;;4919164;28;100206;-74
2023/08/01 11:02:09;;;;;;;4.25;1.65;;;;;;;;;;4918786;28;99194;-74
2023/08/01 11:04:36;;;;;;;3.10;1.25;;;;;;;;;;4916765;28;100811;-73
2023/08/01 11:07:04;;;;;;;3.25;1.60;;;;;;;;;;4916791;28;100393;-75
2023/08/01 11:09:30;;;;;;;7.93;1.58;;;;;;;;;;4919391;28;100170;-73
2023/08/01 11:11:58;;;;;;;6.85;1.48;;;;;;;;;;4918968;28;100239;-75
2023/08/01 11:14:25;;;;;;;2.83;1.50;;;;;;;;;;4919703;28;102389;-74
2023/08/01 11:16:54;;;;;;;6.32;1.50;;;;;;;;;;4919266;28;99915;-78
2023/08/01 11:19:25;;;;;;;5.28;1.73;;;;;;;;;;4918217;28;100120;-75
2023/08/01 11:21:52;;;;;;;3.05;1.08;;;;;;;;;;4918222;28;100326;-75
2023/08/01 11:24:19;;;;;;;7.65;1.83;;;;;;;;;;4919017;28;99473;-74
2023/08/01 11:26:47;;;;;;;3.80;1.58;;;;;;;;;;4917020;28;99743;-74
2023/08/01 11:29:14;;;;;;;2.05;1.38;;;;;;;;;;4915970;28;100299;-74
2023/08/01 11:31:41;;;;;;;4.25;1.38;;;;;;;;;;4914852;28;101252;-74
2023/08/01 11:34:10;;;;;;;3.50;1.42;;;;;;;;;;4915001;28;101044;-73
2023/08/01 11:36:38;;;;;;;3.83;1.63;;;;;;;;;;4919781;28;100153;-73
2023/08/01 11:39:05;;;;;;;2.42;1.40;;;;;;;;;;4916009;28;99892;-74
2023/08/01 11:41:32;;;;;;;4.10;1.30;;;;;;;;;;4914681;28;100261;-76
2023/08/01 11:44:03;;;;;;;4.95;1.83;;;;;;;;;;4916920;28;100693;-73
2023/08/01 11:46:30;;;;;;;2.55;1.40;;;;;;;;;;4917958;28;100034;-75
2023/08/01 11:48:58;;;;;;;2.45;1.40;;;;;;;;;;4915807;28;98338;-75
2023/08/01 11:51:24;;;;;;;2.13;1.30;;;;;;;;;;4919107;28;98862;-75
2023/08/01 11:53:59;;;;;;;4.05;1.95;;;;;;;;;;4918488;28;99403;-74
2023/08/01 11:56:26;;;;;;;4.50;1.52;;;;;;;;;;4915724;28;101233;-75
2023/08/01 11:58:52;;;;;;;5.95;1.70;;;;;;;;;;4921755;28;100291;-73
2023/08/01 12:01:19;;;;;;;2.40;1.15;;;;;;;;;;4920932;28;99957;-74
2023/08/01 12:03:46;;;;;;;3.30;1.02;;;;;;;;;;4920570;28;99155;-73
2023/08/01 12:06:13;;;;;;;2.65;1.00;;;;;;;;;;4923368;28;99819;-75
2023/08/01 12:08:44;;;;;;;4.18;1.75;;;;;;;;;;4922879;28;99821;-73
2023/08/01 12:11:22;;;;;;;3.13;1.63;;;;;;;;;;4921356;28;99744;-74
2023/08/01 12:14:09;;;;;;;6.43;1.70;;;;;;;;;;4922166;28;101686;-73
2023/08/01 12:16:36;;;;;;;5.78;1.73;;;;;;;;;;4922723;28;100123;-73
2023/08/01 12:19:03;;;;;;;4.97;2.33;;;;;;;;;;4922227;28;100142;-75
2023/08/01 12:21:30;;;;;;;3.03;1.40;;;;;;;;;;4925441;28;100040;-74
2023/08/01 12:23:58;;;;;;;4.15;1.67;;;;;;;;;;4920134;28;99981;-74
2023/08/01 12:26:25;;;;;;;3.13;1.80;;;;;;;;;;4917399;28;100384;-74
2023/08/01 12:28:51;;;;;;;4.95;1.75;;;;;;;;;;4918764;28;101795;-74
2023/08/01 12:31:19;;;;;;;6.68;1.90;;;;;;;;;;4920843;28;99975;-74
2023/08/01 12:33:46;;;;;;;4.10;1.83;;;;;;;;;;4920414;28;100208;-74
2023/08/01 12:36:13;;;;;;;2.10;1.23;;;;;;;;;;4917764;28;100210;-75
2023/08/01 12:38:39;;;;;;;5.28;1.75;;;;;;;;;;4920401;28;99112;-74
2023/08/01 12:41:06;;;;;;;6.38;1.67;;;;;;;;;;4923034;28;99563;-74
2023/08/01 12:43:34;;;;;;;7.05;1.52;;;;;;;;;;4923237;28;100333;-74
2023/08/01 12:46:01;;;;;;;4.05;1.42;;;;;;;;;;4922019;28;100505;-74
2023/08/01 12:48:28;;;;;;;5.28;1.52;;;;;;;;;;4920807;28;99852;-74
2023/08/01 12:50:55;;;;;;;6.40;1.55;;;;;;;;;;4920786;28;100416;-74
2023/08/01 12:53:22;;;;;;;2.03;1.02;;;;;;;;;;4926031;28;99899;-75
2023/08/01 12:55:52;;;;;;;6.70;1.50;;;;;;;;;;4932342;28;101456;-75
2023/08/01 12:58:18;;;;;;;6.22;1.67;;;;;;;;;;4928655;28;100021;-74
2023/08/01 13:00:45;;;;;;;8.13;1.80;;;;;;;;;;4935581;28;99094;-75
2023/08/01 13:03:12;;;;;;;2.80;1.23;;;;;;;;;;4944085;28;97895;-76
2023/08/01 13:05:40;;;;;;;2.88;1.13;;;;;;;;;;4936933;28;99336;-74
2023/08/01 13:08:07;;;;;;;2.95;1.25;;;;;;;;;;4934743;28;99467;-75
2023/08/01 13:10:34;;;;;;;4.78;1.27;;;;;;;;;;4934339;28;99252;-75
2023/08/01 13:13:00;;;;;;;3.47;1.42;;;;;;;;;;4934928;28;99767;-75
2023/08/01 13:15:27;;;;;;;4.00;2.00;;;;;;;;;;4931732;28;99461;-75
2023/08/01 13:17:53;;;;;;;4.70;1.50;;;;;;;;;;4929163;28;99095;-76
2023/08/01 13:20:20;;;;;;;6.13;1.73;;;;;;;;;;4929749;28;98295;-75
2023/08/01 13:22:48;;;;;;;5.22;1.65;;;;;;;;;;4926895;28;100596;-75
2023/08/01 13:25:16;;;;;;;2.45;1.60;;;;;;;;;;4922434;28;99063;-75
2023/08/01 13:27:42;;;;;;;5.78;1.90;;;;;;;;;;4929455;28;98876;-75
2023/08/01 13:30:09;;;;;;;6.88;2.15;;;;;;;;;;4924121;28;99840;-74
2023/08/01 13:32:35;;;;;;;7.05;1.90;;;;;;;;;;4927650;28;99497;-75
2023/08/01 13:35:02;;;;;;;7.95;1.63;;;;;;;;;;4928619;28;100965;-75
2023/08/01 13:37:29;;;;;;;5.70;1.17;;;;;;;;;;4928048;28;99405;-75
2023/08/01 13:39:56;;;;;;;2.92;1.30;;;;;;;;;;4928321;28;100035;-75
2023/08/01 13:42:23;;;;;;;5.72;1.55;;;;;;;;;;4928946;28;100044;-77
2023/08/01 13:44:50;;;;;;;10.32;1.88;;;;;;;;;;4925640;28;99129;-74
2023/08/01 13:47:16;;;;;;;4.82;1.67;;;;;;;;;;4924292;28;99376;-75
2023/08/01 13:49:43;;;;;;;2.58;1.58;;;;;;;;;;4925415;28;100557;-78
2023/08/01 13:52:09;;;;;;;3.95;1.27;;;;;;;;;;4918831;28;98970;-76
2023/08/01 13:54:35;;;;;;;3.30;1.55;;;;;;;;;;4914764;28;99246;-74
2023/08/01 13:57:02;;;;;;;5.20;1.20;;;;;;;;;;4924926;28;99980;-75
2023/08/01 13:59:29;;;;;;;3.10;1.50;;;;;;;;;;4919196;28;100000;-73
2023/08/01 14:01:56;;;;;;;6.35;1.67;;;;;;;;;;4926818;28;99886;-75
2023/08/01 14:04:22;;;;;;;5.32;1.48;;;;;;;;;;4926211;28;100115;-74
2023/08/01 14:06:49;;;;;;;2.95;1.30;;;;;;;;;;4928150;28;99201;-74
2023/08/01 14:09:15;;;;;;;2.20;1.30;;;;;;;;;;4924891;28;99867;-75
2023/08/01 14:11:42;;;;;;;6.88;1.83;;;;;;;;;;4909873;28;99919;-73
2023/08/01 14:14:08;;;;;;;6.68;1.65;;;;;;;;;;4917344;28;99886;-74
2023/08/01 14:16:35;;;;;;;2.80;1.67;;;;;;;;;;4924240;28;100005;-73
2023/08/01 14:19:03;;;;;;;3.25;1.77;;;;;;;;;;4912229;28;98425;-74
2023/08/01 14:21:30;;;;;;;6.30;1.45;;;;;;;;;;4927093;28;100355;-73
2023/08/01 14:23:56;;;;;;;7.00;1.58;;;;;;;;;;4927505;28;99241;-73
2023/08/01 14:26:23;;;;;;;8.38;1.98;;;;;;;;;;4927762;28;100821;-73
2023/08/01 14:28:50;;;;;;;7.15;2.35;;;;;;;;;;4919421;28;100355;-74
2023/08/01 14:31:16;;;;;;;7.97;1.60;;;;;;;;;;4927855;28;99902;-77
2023/08/01 14:33:43;;;;;;;6.70;1.60;;;;;;;;;;4926930;28;99708;-75
2023/08/01 14:36:12;;;;;;;6.05;1.55;;;;;;;;;;4926543;28;99094;-75